<?xml version="1.0" encoding="UTF-8" standalone="no" ?>
<gpx xmlns="http://www.topografix.com/GPX/1/1" xmlns:xsi="http://www.w3.org/2001/XMLSchema-instance" xsi:schemaLocation="http://www.topografix.com/GPX/1/1 http://www.topografix.com/GPX/1/1/gpx.xsd" version="1.1" creator="VisuGPX - https://www.visugpx.com">
  <metadata>
    <name>Sur le marais à Amblie</name>
    <desc><![CDATA[Agréable promenade le long de la Vallée de la Seulles et dans la campagne environnante.]]></desc>
  </metadata>
  <wpt lat="49.29232" lon="-0.48746">
    <ele>10</ele>
    <name><![CDATA[Parking de la mairie]]></name>
  </wpt>
  <wpt lat="49.2913" lon="-0.49042">
    <ele>10</ele>
    <name><![CDATA[Rue du Château (D35)]]></name>
  </wpt>
  <wpt lat="49.28829" lon="-0.51226">
    <ele>12</ele>
    <name><![CDATA[Château des Planches]]></name>
  </wpt>
  <wpt lat="49.29319" lon="-0.51162">
    <ele>11</ele>
    <name><![CDATA[Rue du Bout de Bas]]></name>
  </wpt>
  <wpt lat="49.29683" lon="-0.50658">
    <ele>36</ele>
    <name><![CDATA[Route de Douvres (D176)]]></name>
  </wpt>
  <wpt lat="49.30294" lon="-0.49656">
    <ele>47</ele>
    <name><![CDATA[Fourche en pleine campagne]]></name>
  </wpt>
  <wpt lat="49.3008" lon="-0.47907">
    <ele>8</ele>
    <name><![CDATA[Intersection]]></name>
  </wpt>
  <wpt lat="49.30005" lon="-0.47745">
    <ele>5</ele>
    <name><![CDATA[Départ de chemin]]></name>
  </wpt>
  <wpt lat="49.29722" lon="-0.47573">
    <ele>25</ele>
    <name><![CDATA[ Route D35]]></name>
  </wpt>
  <wpt lat="49.29233" lon="-0.48743">
    <ele>10</ele>
    <name><![CDATA[Parking de la mairie]]></name>
  </wpt>
  <trk>
    <name><![CDATA[Sur le marais à Amblie]]></name>
    <trkseg>
      <trkpt lat="49.29232" lon="-0.48746">
        <ele>10</ele>
        <time>2021-07-16T10:12:41+02:00</time>
      </trkpt>
      <trkpt lat="49.29239" lon="-0.48778">
        <ele>9</ele>
        <time>2021-07-16T10:12:46+02:00</time>
      </trkpt>
      <trkpt lat="49.29237" lon="-0.4882">
        <ele>8</ele>
        <time>2021-07-16T10:12:51+02:00</time>
      </trkpt>
      <trkpt lat="49.29234" lon="-0.4887">
        <ele>7</ele>
        <time>2021-07-16T10:12:56+02:00</time>
      </trkpt>
      <trkpt lat="49.2923" lon="-0.48914">
        <ele>6</ele>
        <time>2021-07-16T10:13:01+02:00</time>
      </trkpt>
      <trkpt lat="49.29217" lon="-0.48961">
        <ele>6</ele>
        <time>2021-07-16T10:13:06+02:00</time>
      </trkpt>
      <trkpt lat="49.2921" lon="-0.48979">
        <ele>6</ele>
        <time>2021-07-16T10:13:11+02:00</time>
      </trkpt>
      <trkpt lat="49.29203" lon="-0.48993">
        <ele>6</ele>
        <time>2021-07-16T10:13:16+02:00</time>
      </trkpt>
      <trkpt lat="49.29188" lon="-0.49006">
        <ele>6</ele>
        <time>2021-07-16T10:13:21+02:00</time>
      </trkpt>
      <trkpt lat="49.29162" lon="-0.49026">
        <ele>7</ele>
        <time>2021-07-16T10:13:26+02:00</time>
      </trkpt>
      <trkpt lat="49.2913" lon="-0.49042">
        <ele>10</ele>
        <time>2021-07-16T10:13:31+02:00</time>
      </trkpt>
      <trkpt lat="49.29139" lon="-0.49096">
        <ele>11</ele>
        <time>2021-07-16T10:13:36+02:00</time>
      </trkpt>
      <trkpt lat="49.29144" lon="-0.49132">
        <ele>12</ele>
        <time>2021-07-16T10:13:41+02:00</time>
      </trkpt>
      <trkpt lat="49.29148" lon="-0.49166">
        <ele>12</ele>
        <time>2021-07-16T10:13:46+02:00</time>
      </trkpt>
      <trkpt lat="49.29149" lon="-0.49215">
        <ele>13</ele>
        <time>2021-07-16T10:13:51+02:00</time>
      </trkpt>
      <trkpt lat="49.29147" lon="-0.49259">
        <ele>14</ele>
        <time>2021-07-16T10:13:56+02:00</time>
      </trkpt>
      <trkpt lat="49.29145" lon="-0.49301">
        <ele>14</ele>
        <time>2021-07-16T10:14:01+02:00</time>
      </trkpt>
      <trkpt lat="49.29129" lon="-0.49387">
        <ele>15</ele>
        <time>2021-07-16T10:14:06+02:00</time>
      </trkpt>
      <trkpt lat="49.29101" lon="-0.4946">
        <ele>15</ele>
        <time>2021-07-16T10:14:11+02:00</time>
      </trkpt>
      <trkpt lat="49.29082" lon="-0.49494">
        <ele>15</ele>
        <time>2021-07-16T10:14:16+02:00</time>
      </trkpt>
      <trkpt lat="49.29062" lon="-0.49521">
        <ele>18</ele>
        <time>2021-07-16T10:14:21+02:00</time>
      </trkpt>
      <trkpt lat="49.29062" lon="-0.4955">
        <ele>18</ele>
        <time>2021-07-16T10:14:26+02:00</time>
      </trkpt>
      <trkpt lat="49.29061" lon="-0.49575">
        <ele>17</ele>
        <time>2021-07-16T10:14:31+02:00</time>
      </trkpt>
      <trkpt lat="49.29058" lon="-0.49608">
        <ele>17</ele>
        <time>2021-07-16T10:14:36+02:00</time>
      </trkpt>
      <trkpt lat="49.29037" lon="-0.49713">
        <ele>20</ele>
        <time>2021-07-16T10:14:41+02:00</time>
      </trkpt>
      <trkpt lat="49.29017" lon="-0.49813">
        <ele>22</ele>
        <time>2021-07-16T10:14:46+02:00</time>
      </trkpt>
      <trkpt lat="49.28998" lon="-0.49925">
        <ele>22</ele>
        <time>2021-07-16T10:14:51+02:00</time>
      </trkpt>
      <trkpt lat="49.28983" lon="-0.50037">
        <ele>20</ele>
        <time>2021-07-16T10:14:56+02:00</time>
      </trkpt>
      <trkpt lat="49.2896" lon="-0.50159">
        <ele>17</ele>
        <time>2021-07-16T10:15:01+02:00</time>
      </trkpt>
      <trkpt lat="49.28952" lon="-0.50194">
        <ele>17</ele>
        <time>2021-07-16T10:15:06+02:00</time>
      </trkpt>
      <trkpt lat="49.28947" lon="-0.5023">
        <ele>18</ele>
        <time>2021-07-16T10:15:11+02:00</time>
      </trkpt>
      <trkpt lat="49.28939" lon="-0.503">
        <ele>18</ele>
        <time>2021-07-16T10:15:16+02:00</time>
      </trkpt>
      <trkpt lat="49.28936" lon="-0.50339">
        <ele>18</ele>
        <time>2021-07-16T10:15:21+02:00</time>
      </trkpt>
      <trkpt lat="49.28928" lon="-0.50385">
        <ele>18</ele>
        <time>2021-07-16T10:15:26+02:00</time>
      </trkpt>
      <trkpt lat="49.28923" lon="-0.50413">
        <ele>18</ele>
        <time>2021-07-16T10:15:31+02:00</time>
      </trkpt>
      <trkpt lat="49.28914" lon="-0.5044">
        <ele>17</ele>
        <time>2021-07-16T10:15:36+02:00</time>
      </trkpt>
      <trkpt lat="49.28894" lon="-0.50493">
        <ele>17</ele>
        <time>2021-07-16T10:15:41+02:00</time>
      </trkpt>
      <trkpt lat="49.28882" lon="-0.50524">
        <ele>16</ele>
        <time>2021-07-16T10:15:46+02:00</time>
      </trkpt>
      <trkpt lat="49.28868" lon="-0.5055">
        <ele>16</ele>
        <time>2021-07-16T10:15:51+02:00</time>
      </trkpt>
      <trkpt lat="49.28853" lon="-0.50581">
        <ele>15</ele>
        <time>2021-07-16T10:15:56+02:00</time>
      </trkpt>
      <trkpt lat="49.28839" lon="-0.50619">
        <ele>14</ele>
        <time>2021-07-16T10:16:01+02:00</time>
      </trkpt>
      <trkpt lat="49.28834" lon="-0.50668">
        <ele>11</ele>
        <time>2021-07-16T10:16:06+02:00</time>
      </trkpt>
      <trkpt lat="49.28833" lon="-0.50724">
        <ele>11</ele>
        <time>2021-07-16T10:16:11+02:00</time>
      </trkpt>
      <trkpt lat="49.28837" lon="-0.50774">
        <ele>11</ele>
        <time>2021-07-16T10:16:16+02:00</time>
      </trkpt>
      <trkpt lat="49.2884" lon="-0.50824">
        <ele>10</ele>
        <time>2021-07-16T10:16:21+02:00</time>
      </trkpt>
      <trkpt lat="49.28837" lon="-0.50895">
        <ele>10</ele>
        <time>2021-07-16T10:16:26+02:00</time>
      </trkpt>
      <trkpt lat="49.28832" lon="-0.5096">
        <ele>9</ele>
        <time>2021-07-16T10:16:31+02:00</time>
      </trkpt>
      <trkpt lat="49.28837" lon="-0.50992">
        <ele>9</ele>
        <time>2021-07-16T10:16:36+02:00</time>
      </trkpt>
      <trkpt lat="49.28846" lon="-0.51024">
        <ele>10</ele>
        <time>2021-07-16T10:16:41+02:00</time>
      </trkpt>
      <trkpt lat="49.28853" lon="-0.51058">
        <ele>10</ele>
        <time>2021-07-16T10:16:46+02:00</time>
      </trkpt>
      <trkpt lat="49.28845" lon="-0.51107">
        <ele>10</ele>
        <time>2021-07-16T10:16:51+02:00</time>
      </trkpt>
      <trkpt lat="49.28837" lon="-0.51157">
        <ele>10</ele>
        <time>2021-07-16T10:16:56+02:00</time>
      </trkpt>
      <trkpt lat="49.28829" lon="-0.51226">
        <ele>12</ele>
        <time>2021-07-16T10:17:01+02:00</time>
      </trkpt>
      <trkpt lat="49.28896" lon="-0.51217">
        <ele>13</ele>
        <time>2021-07-16T10:17:06+02:00</time>
      </trkpt>
      <trkpt lat="49.28961" lon="-0.51214">
        <ele>13</ele>
        <time>2021-07-16T10:17:11+02:00</time>
      </trkpt>
      <trkpt lat="49.29032" lon="-0.5118">
        <ele>12</ele>
        <time>2021-07-16T10:17:16+02:00</time>
      </trkpt>
      <trkpt lat="49.29091" lon="-0.51155">
        <ele>9</ele>
        <time>2021-07-16T10:17:21+02:00</time>
      </trkpt>
      <trkpt lat="49.29117" lon="-0.5115">
        <ele>10</ele>
        <time>2021-07-16T10:17:26+02:00</time>
      </trkpt>
      <trkpt lat="49.29131" lon="-0.5115">
        <ele>10</ele>
        <time>2021-07-16T10:17:31+02:00</time>
      </trkpt>
      <trkpt lat="49.29145" lon="-0.51155">
        <ele>11</ele>
        <time>2021-07-16T10:17:36+02:00</time>
      </trkpt>
      <trkpt lat="49.29174" lon="-0.51169">
        <ele>12</ele>
        <time>2021-07-16T10:17:41+02:00</time>
      </trkpt>
      <trkpt lat="49.29192" lon="-0.5118">
        <ele>11</ele>
        <time>2021-07-16T10:17:46+02:00</time>
      </trkpt>
      <trkpt lat="49.29234" lon="-0.51213">
        <ele>9</ele>
        <time>2021-07-16T10:17:51+02:00</time>
      </trkpt>
      <trkpt lat="49.29265" lon="-0.51252">
        <ele>7</ele>
        <time>2021-07-16T10:17:56+02:00</time>
      </trkpt>
      <trkpt lat="49.29311" lon="-0.51176">
        <ele>10</ele>
        <time>2021-07-16T10:18:01+02:00</time>
      </trkpt>
      <trkpt lat="49.29319" lon="-0.51162">
        <ele>11</ele>
        <time>2021-07-16T10:18:06+02:00</time>
      </trkpt>
      <trkpt lat="49.29322" lon="-0.51136">
        <ele>12</ele>
        <time>2021-07-16T10:18:11+02:00</time>
      </trkpt>
      <trkpt lat="49.29322" lon="-0.51126">
        <ele>13</ele>
        <time>2021-07-16T10:18:16+02:00</time>
      </trkpt>
      <trkpt lat="49.29299" lon="-0.51097">
        <ele>14</ele>
        <time>2021-07-16T10:18:21+02:00</time>
      </trkpt>
      <trkpt lat="49.29283" lon="-0.51075">
        <ele>14</ele>
        <time>2021-07-16T10:18:26+02:00</time>
      </trkpt>
      <trkpt lat="49.2929" lon="-0.51057">
        <ele>15</ele>
        <time>2021-07-16T10:18:31+02:00</time>
      </trkpt>
      <trkpt lat="49.29302" lon="-0.51053">
        <ele>15</ele>
        <time>2021-07-16T10:18:36+02:00</time>
      </trkpt>
      <trkpt lat="49.29323" lon="-0.5104">
        <ele>16</ele>
        <time>2021-07-16T10:18:41+02:00</time>
      </trkpt>
      <trkpt lat="49.29334" lon="-0.51028">
        <ele>17</ele>
        <time>2021-07-16T10:18:46+02:00</time>
      </trkpt>
      <trkpt lat="49.29387" lon="-0.50974">
        <ele>20</ele>
        <time>2021-07-16T10:18:51+02:00</time>
      </trkpt>
      <trkpt lat="49.29425" lon="-0.50935">
        <ele>24</ele>
        <time>2021-07-16T10:18:56+02:00</time>
      </trkpt>
      <trkpt lat="49.29461" lon="-0.50897">
        <ele>26</ele>
        <time>2021-07-16T10:19:01+02:00</time>
      </trkpt>
      <trkpt lat="49.29533" lon="-0.50817">
        <ele>30</ele>
        <time>2021-07-16T10:19:06+02:00</time>
      </trkpt>
      <trkpt lat="49.29558" lon="-0.50788">
        <ele>32</ele>
        <time>2021-07-16T10:19:11+02:00</time>
      </trkpt>
      <trkpt lat="49.29584" lon="-0.50761">
        <ele>33</ele>
        <time>2021-07-16T10:19:16+02:00</time>
      </trkpt>
      <trkpt lat="49.29607" lon="-0.5073">
        <ele>34</ele>
        <time>2021-07-16T10:19:21+02:00</time>
      </trkpt>
      <trkpt lat="49.29627" lon="-0.50703">
        <ele>35</ele>
        <time>2021-07-16T10:19:26+02:00</time>
      </trkpt>
      <trkpt lat="49.29648" lon="-0.50681">
        <ele>36</ele>
        <time>2021-07-16T10:19:31+02:00</time>
      </trkpt>
      <trkpt lat="49.29666" lon="-0.50666">
        <ele>36</ele>
        <time>2021-07-16T10:19:36+02:00</time>
      </trkpt>
      <trkpt lat="49.29683" lon="-0.50658">
        <ele>36</ele>
        <time>2021-07-16T10:19:41+02:00</time>
      </trkpt>
      <trkpt lat="49.30264" lon="-0.50739">
        <ele>48</ele>
        <time>2021-07-16T10:19:46+02:00</time>
      </trkpt>
      <trkpt lat="49.30294" lon="-0.49656">
        <ele>47</ele>
        <time>2021-07-16T10:19:51+02:00</time>
      </trkpt>
      <trkpt lat="49.30685" lon="-0.4941">
        <ele>42</ele>
        <time>2021-07-16T10:19:56+02:00</time>
      </trkpt>
      <trkpt lat="49.30687" lon="-0.49402">
        <ele>42</ele>
        <time>2021-07-16T10:20:01+02:00</time>
      </trkpt>
      <trkpt lat="49.30667" lon="-0.4933">
        <ele>42</ele>
        <time>2021-07-16T10:20:06+02:00</time>
      </trkpt>
      <trkpt lat="49.30638" lon="-0.49234">
        <ele>43</ele>
        <time>2021-07-16T10:20:11+02:00</time>
      </trkpt>
      <trkpt lat="49.30605" lon="-0.49145">
        <ele>42</ele>
        <time>2021-07-16T10:20:16+02:00</time>
      </trkpt>
      <trkpt lat="49.30573" lon="-0.49069">
        <ele>42</ele>
        <time>2021-07-16T10:20:21+02:00</time>
      </trkpt>
      <trkpt lat="49.30568" lon="-0.49053">
        <ele>42</ele>
        <time>2021-07-16T10:20:26+02:00</time>
      </trkpt>
      <trkpt lat="49.30511" lon="-0.48915">
        <ele>43</ele>
        <time>2021-07-16T10:20:31+02:00</time>
      </trkpt>
      <trkpt lat="49.30452" lon="-0.4877">
        <ele>43</ele>
        <time>2021-07-16T10:20:36+02:00</time>
      </trkpt>
      <trkpt lat="49.3042" lon="-0.48695">
        <ele>42</ele>
        <time>2021-07-16T10:20:41+02:00</time>
      </trkpt>
      <trkpt lat="49.30387" lon="-0.48615">
        <ele>41</ele>
        <time>2021-07-16T10:20:46+02:00</time>
      </trkpt>
      <trkpt lat="49.30348" lon="-0.48519">
        <ele>38</ele>
        <time>2021-07-16T10:20:51+02:00</time>
      </trkpt>
      <trkpt lat="49.30338" lon="-0.485">
        <ele>38</ele>
        <time>2021-07-16T10:20:56+02:00</time>
      </trkpt>
      <trkpt lat="49.30305" lon="-0.48415">
        <ele>35</ele>
        <time>2021-07-16T10:21:01+02:00</time>
      </trkpt>
      <trkpt lat="49.30275" lon="-0.4836">
        <ele>30</ele>
        <time>2021-07-16T10:21:06+02:00</time>
      </trkpt>
      <trkpt lat="49.30229" lon="-0.4828">
        <ele>26</ele>
        <time>2021-07-16T10:21:11+02:00</time>
      </trkpt>
      <trkpt lat="49.30187" lon="-0.48213">
        <ele>23</ele>
        <time>2021-07-16T10:21:16+02:00</time>
      </trkpt>
      <trkpt lat="49.30144" lon="-0.48145">
        <ele>19</ele>
        <time>2021-07-16T10:21:21+02:00</time>
      </trkpt>
      <trkpt lat="49.30129" lon="-0.48115">
        <ele>18</ele>
        <time>2021-07-16T10:21:26+02:00</time>
      </trkpt>
      <trkpt lat="49.30109" lon="-0.48064">
        <ele>15</ele>
        <time>2021-07-16T10:21:31+02:00</time>
      </trkpt>
      <trkpt lat="49.30094" lon="-0.48012">
        <ele>13</ele>
        <time>2021-07-16T10:21:36+02:00</time>
      </trkpt>
      <trkpt lat="49.3008" lon="-0.47979">
        <ele>11</ele>
        <time>2021-07-16T10:21:41+02:00</time>
      </trkpt>
      <trkpt lat="49.30075" lon="-0.47954">
        <ele>10</ele>
        <time>2021-07-16T10:21:46+02:00</time>
      </trkpt>
      <trkpt lat="49.30072" lon="-0.47932">
        <ele>9</ele>
        <time>2021-07-16T10:21:51+02:00</time>
      </trkpt>
      <trkpt lat="49.3008" lon="-0.47907">
        <ele>8</ele>
        <time>2021-07-16T10:21:56+02:00</time>
      </trkpt>
      <trkpt lat="49.30024" lon="-0.47916">
        <ele>6</ele>
        <time>2021-07-16T10:22:01+02:00</time>
      </trkpt>
      <trkpt lat="49.30013" lon="-0.4789">
        <ele>5</ele>
        <time>2021-07-16T10:22:06+02:00</time>
      </trkpt>
      <trkpt lat="49.30007" lon="-0.47842">
        <ele>4</ele>
        <time>2021-07-16T10:22:11+02:00</time>
      </trkpt>
      <trkpt lat="49.30005" lon="-0.47745">
        <ele>5</ele>
        <time>2021-07-16T10:22:16+02:00</time>
      </trkpt>
      <trkpt lat="49.29907" lon="-0.47705">
        <ele>12</ele>
        <time>2021-07-16T10:22:21+02:00</time>
      </trkpt>
      <trkpt lat="49.29876" lon="-0.47692">
        <ele>13</ele>
        <time>2021-07-16T10:22:26+02:00</time>
      </trkpt>
      <trkpt lat="49.29846" lon="-0.47674">
        <ele>16</ele>
        <time>2021-07-16T10:22:31+02:00</time>
      </trkpt>
      <trkpt lat="49.29822" lon="-0.47659">
        <ele>18</ele>
        <time>2021-07-16T10:22:36+02:00</time>
      </trkpt>
      <trkpt lat="49.29799" lon="-0.47643">
        <ele>19</ele>
        <time>2021-07-16T10:22:41+02:00</time>
      </trkpt>
      <trkpt lat="49.29754" lon="-0.47603">
        <ele>23</ele>
        <time>2021-07-16T10:22:46+02:00</time>
      </trkpt>
      <trkpt lat="49.29722" lon="-0.47573">
        <ele>25</ele>
        <time>2021-07-16T10:22:51+02:00</time>
      </trkpt>
      <trkpt lat="49.29675" lon="-0.47628">
        <ele>21</ele>
        <time>2021-07-16T10:22:56+02:00</time>
      </trkpt>
      <trkpt lat="49.29651" lon="-0.47653">
        <ele>20</ele>
        <time>2021-07-16T10:23:01+02:00</time>
      </trkpt>
      <trkpt lat="49.29629" lon="-0.47682">
        <ele>19</ele>
        <time>2021-07-16T10:23:06+02:00</time>
      </trkpt>
      <trkpt lat="49.29605" lon="-0.4772">
        <ele>18</ele>
        <time>2021-07-16T10:23:11+02:00</time>
      </trkpt>
      <trkpt lat="49.29577" lon="-0.47768">
        <ele>17</ele>
        <time>2021-07-16T10:23:16+02:00</time>
      </trkpt>
      <trkpt lat="49.29556" lon="-0.47806">
        <ele>17</ele>
        <time>2021-07-16T10:23:21+02:00</time>
      </trkpt>
      <trkpt lat="49.29535" lon="-0.47848">
        <ele>16</ele>
        <time>2021-07-16T10:23:26+02:00</time>
      </trkpt>
      <trkpt lat="49.29517" lon="-0.47895">
        <ele>16</ele>
        <time>2021-07-16T10:23:31+02:00</time>
      </trkpt>
      <trkpt lat="49.29491" lon="-0.47974">
        <ele>16</ele>
        <time>2021-07-16T10:23:36+02:00</time>
      </trkpt>
      <trkpt lat="49.29453" lon="-0.48091">
        <ele>17</ele>
        <time>2021-07-16T10:23:41+02:00</time>
      </trkpt>
      <trkpt lat="49.29406" lon="-0.4824">
        <ele>17</ele>
        <time>2021-07-16T10:23:46+02:00</time>
      </trkpt>
      <trkpt lat="49.29378" lon="-0.48334">
        <ele>16</ele>
        <time>2021-07-16T10:23:51+02:00</time>
      </trkpt>
      <trkpt lat="49.29355" lon="-0.48428">
        <ele>15</ele>
        <time>2021-07-16T10:23:56+02:00</time>
      </trkpt>
      <trkpt lat="49.29325" lon="-0.48546">
        <ele>15</ele>
        <time>2021-07-16T10:24:01+02:00</time>
      </trkpt>
      <trkpt lat="49.29307" lon="-0.48599">
        <ele>14</ele>
        <time>2021-07-16T10:24:06+02:00</time>
      </trkpt>
      <trkpt lat="49.29285" lon="-0.48644">
        <ele>13</ele>
        <time>2021-07-16T10:24:11+02:00</time>
      </trkpt>
      <trkpt lat="49.29262" lon="-0.48694">
        <ele>12</ele>
        <time>2021-07-16T10:24:16+02:00</time>
      </trkpt>
      <trkpt lat="49.29252" lon="-0.48721">
        <ele>11</ele>
        <time>2021-07-16T10:24:21+02:00</time>
      </trkpt>
      <trkpt lat="49.29244" lon="-0.48747">
        <ele>9</ele>
        <time>2021-07-16T10:24:26+02:00</time>
      </trkpt>
      <trkpt lat="49.29233" lon="-0.48743">
        <ele>10</ele>
        <time>2021-07-16T10:24:31+02:00</time>
      </trkpt>
    </trkseg>
  </trk>
</gpx>